sensor_id;sensor_type;location;lat;lon;timestamp;temperature;humidity
22426;DHT22;11380;50.822;15.790;2022-11-24T00:02:47;0.50;99.90
22426;DHT22;11380;50.822;15.790;2022-11-24T00:07:52;0.40;99.90
22426;DHT22;11380;50.822;15.790;2022-11-24T00:12:58;0.20;99.90
22426;DHT22;11380;50.822;15.790;2022-11-24T00:18:03;0.10;99.90
22426;DHT22;11380;50.822;15.790;2022-11-24T00:23:09;0.00;99.90
22426;DHT22;11380;50.822;15.790;2022-11-24T00:28:14;0.20;99.90
22426;DHT22;11380;50.822;15.790;2022-11-24T00:33:19;0.30;99.90
22426;DHT22;11380;50.822;15.790;2022-11-24T00:38:26;0.30;99.90
22426;DHT22;11380;50.822;15.790;2022-11-24T00:43:33;0.40;99.90
22426;DHT22;11380;50.822;15.790;2022-11-24T00:48:39;0.60;99.90
22426;DHT22;11380;50.822;15.790;2022-11-24T00:53:44;0.50;99.90
22426;DHT22;11380;50.822;15.790;2022-11-24T00:58:51;0.50;99.90
22426;DHT22;11380;50.822;15.790;2022-11-24T01:03:57;0.50;99.90
22426;DHT22;11380;50.822;15.790;2022-11-24T01:09:04;0.60;99.90
22426;DHT22;11380;50.822;15.790;2022-11-24T01:14:10;0.60;99.90
22426;DHT22;11380;50.822;15.790;2022-11-24T01:19:16;0.70;99.90
22426;DHT22;11380;50.822;15.790;2022-11-24T01:24:22;0.50;99.90
22426;DHT22;11380;50.822;15.790;2022-11-24T01:29:29;0.50;99.90
22426;DHT22;11380;50.822;15.790;2022-11-24T01:34:35;0.20;99.90
22426;DHT22;11380;50.822;15.790;2022-11-24T01:39:40;0.20;99.90
22426;DHT22;11380;50.822;15.790;2022-11-24T01:44:49;0.00;99.90
22426;DHT22;11380;50.822;15.790;2022-11-24T01:49:56;0.20;99.90
22426;DHT22;11380;50.822;15.790;2022-11-24T01:55:08;0.20;99.90
22426;DHT22;11380;50.822;15.790;2022-11-24T02:00:14;0.00;99.90
22426;DHT22;11380;50.822;15.790;2022-11-24T02:05:29;0.00;99.90
22426;DHT22;11380;50.822;15.790;2022-11-24T02:10:34;0.10;99.90
22426;DHT22;11380;50.822;15.790;2022-11-24T02:15:40;0.10;99.90
22426;DHT22;11380;50.822;15.790;2022-11-24T02:20:46;0.10;99.90
22426;DHT22;11380;50.822;15.790;2022-11-24T02:26:05;0.30;99.90
22426;DHT22;11380;50.822;15.790;2022-11-24T02:31:06;0.40;99.90
22426;DHT22;11380;50.822;15.790;2022-11-24T02:36:12;0.50;99.90
22426;DHT22;11380;50.822;15.790;2022-11-24T02:41:20;0.50;99.90
22426;DHT22;11380;50.822;15.790;2022-11-24T02:46:26;0.40;99.90
22426;DHT22;11380;50.822;15.790;2022-11-24T02:51:32;0.40;99.90
22426;DHT22;11380;50.822;15.790;2022-11-24T02:56:37;0.40;99.90
22426;DHT22;11380;50.822;15.790;2022-11-24T03:01:43;0.40;99.90
22426;DHT22;11380;50.822;15.790;2022-11-24T03:06:48;0.40;99.90
22426;DHT22;11380;50.822;15.790;2022-11-24T03:11:54;0.40;99.90
22426;DHT22;11380;50.822;15.790;2022-11-24T03:17:00;0.40;99.90
22426;DHT22;11380;50.822;15.790;2022-11-24T03:22:05;0.50;99.90
22426;DHT22;11380;50.822;15.790;2022-11-24T03:27:11;0.40;99.90
22426;DHT22;11380;50.822;15.790;2022-11-24T03:32:18;0.40;99.90
22426;DHT22;11380;50.822;15.790;2022-11-24T03:37:23;0.50;99.90
22426;DHT22;11380;50.822;15.790;2022-11-24T03:42:30;0.60;99.90
22426;DHT22;11380;50.822;15.790;2022-11-24T03:47:35;0.60;99.90
22426;DHT22;11380;50.822;15.790;2022-11-24T03:52:41;0.50;99.90
22426;DHT22;11380;50.822;15.790;2022-11-24T03:57:46;0.40;99.90
22426;DHT22;11380;50.822;15.790;2022-11-24T04:02:52;0.20;99.90
22426;DHT22;11380;50.822;15.790;2022-11-24T04:07:59;0.40;99.90
22426;DHT22;11380;50.822;15.790;2022-11-24T04:13:14;0.30;99.90
22426;DHT22;11380;50.822;15.790;2022-11-24T04:18:21;0.10;99.90
22426;DHT22;11380;50.822;15.790;2022-11-24T04:23:29;-0.20;99.90
22426;DHT22;11380;50.822;15.790;2022-11-24T04:28:34;-0.10;99.90
22426;DHT22;11380;50.822;15.790;2022-11-24T04:33:40;0.00;99.90
22426;DHT22;11380;50.822;15.790;2022-11-24T04:38:47;0.20;99.90
22426;DHT22;11380;50.822;15.790;2022-11-24T04:43:53;0.10;99.90
22426;DHT22;11380;50.822;15.790;2022-11-24T04:48:59;0.20;99.90
22426;DHT22;11380;50.822;15.790;2022-11-24T04:54:11;0.40;99.90
22426;DHT22;11380;50.822;15.790;2022-11-24T04:59:23;0.50;99.90
22426;DHT22;11380;50.822;15.790;2022-11-24T05:04:25;0.60;99.90
22426;DHT22;11380;50.822;15.790;2022-11-24T05:09:30;0.60;99.90
22426;DHT22;11380;50.822;15.790;2022-11-24T05:14:37;0.70;99.90
22426;DHT22;11380;50.822;15.790;2022-11-24T05:19:43;0.60;99.90
22426;DHT22;11380;50.822;15.790;2022-11-24T05:24:49;0.50;99.90
22426;DHT22;11380;50.822;15.790;2022-11-24T05:29:54;0.60;99.90
22426;DHT22;11380;50.822;15.790;2022-11-24T05:34:59;0.60;99.90
22426;DHT22;11380;50.822;15.790;2022-11-24T05:40:06;0.60;99.90
22426;DHT22;11380;50.822;15.790;2022-11-24T05:45:14;0.60;99.90
22426;DHT22;11380;50.822;15.790;2022-11-24T05:50:21;0.50;99.90
22426;DHT22;11380;50.822;15.790;2022-11-24T05:55:27;0.60;99.90
22426;DHT22;11380;50.822;15.790;2022-11-24T06:00:50;0.60;99.90
22426;DHT22;11380;50.822;15.790;2022-11-24T06:05:55;0.60;99.90
22426;DHT22;11380;50.822;15.790;2022-11-24T06:11:01;0.30;99.90
22426;DHT22;11380;50.822;15.790;2022-11-24T06:16:23;0.40;99.90
22426;DHT22;11380;50.822;15.790;2022-11-24T06:21:30;0.40;99.90
22426;DHT22;11380;50.822;15.790;2022-11-24T06:26:36;0.40;99.90
22426;DHT22;11380;50.822;15.790;2022-11-24T06:31:42;0.60;99.90
22426;DHT22;11380;50.822;15.790;2022-11-24T06:36:47;0.80;99.90
22426;DHT22;11380;50.822;15.790;2022-11-24T06:41:52;0.70;99.90
22426;DHT22;11380;50.822;15.790;2022-11-24T06:46:58;0.60;99.90
22426;DHT22;11380;50.822;15.790;2022-11-24T06:52:03;0.70;99.90
22426;DHT22;11380;50.822;15.790;2022-11-24T06:57:08;0.70;99.90
22426;DHT22;11380;50.822;15.790;2022-11-24T07:02:13;0.70;99.90
22426;DHT22;11380;50.822;15.790;2022-11-24T07:07:19;0.80;99.90
22426;DHT22;11380;50.822;15.790;2022-11-24T07:12:25;0.90;99.90
22426;DHT22;11380;50.822;15.790;2022-11-24T07:17:30;1.00;99.90
22426;DHT22;11380;50.822;15.790;2022-11-24T07:22:37;0.90;99.90
22426;DHT22;11380;50.822;15.790;2022-11-24T07:27:42;0.90;99.90
22426;DHT22;11380;50.822;15.790;2022-11-24T07:32:47;0.90;99.90
22426;DHT22;11380;50.822;15.790;2022-11-24T07:37:59;0.90;99.90
22426;DHT22;11380;50.822;15.790;2022-11-24T07:43:03;0.90;99.90
22426;DHT22;11380;50.822;15.790;2022-11-24T07:48:09;1.20;99.90
22426;DHT22;11380;50.822;15.790;2022-11-24T07:53:16;1.00;99.90
22426;DHT22;11380;50.822;15.790;2022-11-24T07:58:21;0.90;99.90
22426;DHT22;11380;50.822;15.790;2022-11-24T08:03:27;1.20;99.90
22426;DHT22;11380;50.822;15.790;2022-11-24T08:08:32;1.20;99.90
22426;DHT22;11380;50.822;15.790;2022-11-24T08:13:39;1.20;99.90
22426;DHT22;11380;50.822;15.790;2022-11-24T08:18:49;1.40;99.90
22426;DHT22;11380;50.822;15.790;2022-11-24T08:23:56;1.40;99.90
22426;DHT22;11380;50.822;15.790;2022-11-24T08:29:02;1.10;99.90
22426;DHT22;11380;50.822;15.790;2022-11-24T08:34:08;1.30;99.90
22426;DHT22;11380;50.822;15.790;2022-11-24T08:39:13;1.30;99.90
22426;DHT22;11380;50.822;15.790;2022-11-24T08:44:18;1.40;99.90
22426;DHT22;11380;50.822;15.790;2022-11-24T08:49:23;1.50;99.90
22426;DHT22;11380;50.822;15.790;2022-11-24T08:54:30;1.70;99.90
22426;DHT22;11380;50.822;15.790;2022-11-24T08:59:35;1.90;99.90
22426;DHT22;11380;50.822;15.790;2022-11-24T09:04:40;2.00;99.90
22426;DHT22;11380;50.822;15.790;2022-11-24T09:09:47;2.10;99.90
22426;DHT22;11380;50.822;15.790;2022-11-24T09:14:52;2.20;99.90
22426;DHT22;11380;50.822;15.790;2022-11-24T09:19:57;2.10;99.90
22426;DHT22;11380;50.822;15.790;2022-11-24T09:25:03;2.20;99.90
22426;DHT22;11380;50.822;15.790;2022-11-24T09:30:10;2.40;99.90
22426;DHT22;11380;50.822;15.790;2022-11-24T09:35:15;2.60;99.90
22426;DHT22;11380;50.822;15.790;2022-11-24T09:40:21;2.90;99.90
22426;DHT22;11380;50.822;15.790;2022-11-24T09:45:29;3.00;99.90
22426;DHT22;11380;50.822;15.790;2022-11-24T09:50:36;3.20;99.90
22426;DHT22;11380;50.822;15.790;2022-11-24T09:55:49;3.20;99.90
22426;DHT22;11380;50.822;15.790;2022-11-24T10:00:55;3.40;99.90
22426;DHT22;11380;50.822;15.790;2022-11-24T10:06:04;3.60;99.90
22426;DHT22;11380;50.822;15.790;2022-11-24T10:11:12;3.70;99.90
22426;DHT22;11380;50.822;15.790;2022-11-24T10:16:35;3.80;99.90
22426;DHT22;11380;50.822;15.790;2022-11-24T10:21:57;3.60;99.90
22426;DHT22;11380;50.822;15.790;2022-11-24T10:27:09;4.00;99.90
22426;DHT22;11380;50.822;15.790;2022-11-24T10:32:24;4.30;99.90
22426;DHT22;11380;50.822;15.790;2022-11-24T10:37:34;4.50;99.90
22426;DHT22;11380;50.822;15.790;2022-11-24T10:42:38;4.80;99.90
22426;DHT22;11380;50.822;15.790;2022-11-24T10:47:44;4.80;99.90
22426;DHT22;11380;50.822;15.790;2022-11-24T10:53:15;4.90;99.90
22426;DHT22;11380;50.822;15.790;2022-11-24T10:58:22;4.80;99.90
22426;DHT22;11380;50.822;15.790;2022-11-24T11:03:33;5.10;99.90
22426;DHT22;11380;50.822;15.790;2022-11-24T11:08:40;5.20;99.90
22426;DHT22;11380;50.822;15.790;2022-11-24T11:13:53;5.50;99.90
22426;DHT22;11380;50.822;15.790;2022-11-24T11:19:02;5.70;99.90
22426;DHT22;11380;50.822;15.790;2022-11-24T11:24:17;5.70;99.90
22426;DHT22;11380;50.822;15.790;2022-11-24T11:29:24;5.90;99.90
22426;DHT22;11380;50.822;15.790;2022-11-24T11:34:35;5.70;99.90
22426;DHT22;11380;50.822;15.790;2022-11-24T11:39:44;5.70;99.90
22426;DHT22;11380;50.822;15.790;2022-11-24T11:45:08;5.80;99.90
22426;DHT22;11380;50.822;15.790;2022-11-24T11:50:14;5.70;99.90
22426;DHT22;11380;50.822;15.790;2022-11-24T12:00:45;5.80;99.90
22426;DHT22;11380;50.822;15.790;2022-11-24T12:06:01;5.80;99.90
22426;DHT22;11380;50.822;15.790;2022-11-24T12:16:25;5.70;99.90
22426;DHT22;11380;50.822;15.790;2022-11-24T12:37:24;6.00;50.30
22426;DHT22;11380;50.822;15.790;2022-11-24T12:42:42;5.90;44.40
22426;DHT22;11380;50.822;15.790;2022-11-24T12:52:58;6.10;55.90
22426;DHT22;11380;50.822;15.790;2022-11-24T12:58:17;6.10;26.70
22426;DHT22;11380;50.822;15.790;2022-11-24T13:03:35;6.00;29.30
22426;DHT22;11380;50.822;15.790;2022-11-24T13:08:38;5.90;31.70
22426;DHT22;11380;50.822;15.790;2022-11-24T13:14:03;5.90;91.30
22426;DHT22;11380;50.822;15.790;2022-11-24T13:19:08;5.80;99.90
22426;DHT22;11380;50.822;15.790;2022-11-24T13:24:22;5.60;99.90
22426;DHT22;11380;50.822;15.790;2022-11-24T13:29:33;5.50;99.90
22426;DHT22;11380;50.822;15.790;2022-11-24T13:40:00;5.40;99.90
22426;DHT22;11380;50.822;15.790;2022-11-24T13:45:46;5.40;99.90
22426;DHT22;11380;50.822;15.790;2022-11-24T13:55:33;5.20;99.90
22426;DHT22;11380;50.822;15.790;2022-11-24T14:06:02;5.40;99.90
22426;DHT22;11380;50.822;15.790;2022-11-24T14:11:10;5.30;99.90
22426;DHT22;11380;50.822;15.790;2022-11-24T14:16:25;5.20;99.90
22426;DHT22;11380;50.822;15.790;2022-11-24T14:21:39;5.10;99.90
22426;DHT22;11380;50.822;15.790;2022-11-24T14:26:41;5.00;99.90
22426;DHT22;11380;50.822;15.790;2022-11-24T14:37:02;5.10;99.90
22426;DHT22;11380;50.822;15.790;2022-11-24T14:47:24;4.90;99.90
22426;DHT22;11380;50.822;15.790;2022-11-24T14:52:31;4.90;99.90
22426;DHT22;11380;50.822;15.790;2022-11-24T14:57:38;4.90;99.90
22426;DHT22;11380;50.822;15.790;2022-11-24T15:02:45;4.80;99.90
22426;DHT22;11380;50.822;15.790;2022-11-24T15:08:02;4.70;99.90
22426;DHT22;11380;50.822;15.790;2022-11-24T15:13:20;4.70;99.90
22426;DHT22;11380;50.822;15.790;2022-11-24T15:18:46;4.70;99.90
22426;DHT22;11380;50.822;15.790;2022-11-24T15:24:12;4.60;99.90
22426;DHT22;11380;50.822;15.790;2022-11-24T15:29:12;4.40;99.90
22426;DHT22;11380;50.822;15.790;2022-11-24T15:34:17;4.50;99.90
22426;DHT22;11380;50.822;15.790;2022-11-24T15:39:22;4.60;99.90
22426;DHT22;11380;50.822;15.790;2022-11-24T15:44:27;4.60;99.90
22426;DHT22;11380;50.822;15.790;2022-11-24T15:49:33;4.30;99.90
22426;DHT22;11380;50.822;15.790;2022-11-24T15:54:38;4.20;99.90
22426;DHT22;11380;50.822;15.790;2022-11-24T15:59:44;4.30;99.90
22426;DHT22;11380;50.822;15.790;2022-11-24T16:04:49;4.40;99.90
22426;DHT22;11380;50.822;15.790;2022-11-24T16:09:54;4.30;99.90
22426;DHT22;11380;50.822;15.790;2022-11-24T16:15:01;4.20;99.90
22426;DHT22;11380;50.822;15.790;2022-11-24T16:20:06;4.30;99.90
22426;DHT22;11380;50.822;15.790;2022-11-24T16:25:12;4.30;99.90
22426;DHT22;11380;50.822;15.790;2022-11-24T16:30:18;4.30;99.90
22426;DHT22;11380;50.822;15.790;2022-11-24T16:35:24;4.30;99.90
22426;DHT22;11380;50.822;15.790;2022-11-24T16:40:30;4.30;99.90
22426;DHT22;11380;50.822;15.790;2022-11-24T16:45:35;4.30;99.90
22426;DHT22;11380;50.822;15.790;2022-11-24T16:50:43;4.20;99.90
22426;DHT22;11380;50.822;15.790;2022-11-24T16:55:55;4.20;99.90
22426;DHT22;11380;50.822;15.790;2022-11-24T17:01:05;4.20;99.90
22426;DHT22;11380;50.822;15.790;2022-11-24T17:06:13;4.20;99.90
22426;DHT22;11380;50.822;15.790;2022-11-24T17:11:22;4.30;99.90
22426;DHT22;11380;50.822;15.790;2022-11-24T17:16:28;4.30;99.90
22426;DHT22;11380;50.822;15.790;2022-11-24T17:21:33;4.20;99.90
22426;DHT22;11380;50.822;15.790;2022-11-24T17:26:39;4.20;99.90
22426;DHT22;11380;50.822;15.790;2022-11-24T17:31:46;4.10;99.90
22426;DHT22;11380;50.822;15.790;2022-11-24T17:36:51;4.20;99.90
22426;DHT22;11380;50.822;15.790;2022-11-24T17:41:56;4.20;99.90
22426;DHT22;11380;50.822;15.790;2022-11-24T17:47:02;4.20;99.90
22426;DHT22;11380;50.822;15.790;2022-11-24T17:52:07;4.10;99.90
22426;DHT22;11380;50.822;15.790;2022-11-24T17:57:13;4.10;99.90
22426;DHT22;11380;50.822;15.790;2022-11-24T18:02:18;4.20;99.90
22426;DHT22;11380;50.822;15.790;2022-11-24T18:07:24;4.20;99.90
22426;DHT22;11380;50.822;15.790;2022-11-24T18:12:32;4.10;99.90
22426;DHT22;11380;50.822;15.790;2022-11-24T18:17:37;4.20;99.90
22426;DHT22;11380;50.822;15.790;2022-11-24T18:22:42;4.20;99.90
22426;DHT22;11380;50.822;15.790;2022-11-24T18:27:49;4.20;99.90
22426;DHT22;11380;50.822;15.790;2022-11-24T18:32:56;4.20;99.90
22426;DHT22;11380;50.822;15.790;2022-11-24T18:38:01;4.20;99.90
22426;DHT22;11380;50.822;15.790;2022-11-24T18:43:07;4.30;99.90
22426;DHT22;11380;50.822;15.790;2022-11-24T18:48:13;4.20;99.90
22426;DHT22;11380;50.822;15.790;2022-11-24T18:53:19;4.30;99.90
22426;DHT22;11380;50.822;15.790;2022-11-24T18:58:27;4.30;99.90
22426;DHT22;11380;50.822;15.790;2022-11-24T19:03:42;4.00;99.90
22426;DHT22;11380;50.822;15.790;2022-11-24T19:08:52;3.90;99.90
22426;DHT22;11380;50.822;15.790;2022-11-24T19:13:57;4.00;99.90
22426;DHT22;11380;50.822;15.790;2022-11-24T19:19:03;4.10;99.90
22426;DHT22;11380;50.822;15.790;2022-11-24T19:24:08;4.20;99.90
22426;DHT22;11380;50.822;15.790;2022-11-24T19:29:14;4.30;99.90
22426;DHT22;11380;50.822;15.790;2022-11-24T19:34:19;4.40;99.90
22426;DHT22;11380;50.822;15.790;2022-11-24T19:39:25;4.40;99.90
22426;DHT22;11380;50.822;15.790;2022-11-24T19:44:31;4.30;99.90
22426;DHT22;11380;50.822;15.790;2022-11-24T19:49:37;4.20;99.90
22426;DHT22;11380;50.822;15.790;2022-11-24T19:54:42;4.20;99.90
22426;DHT22;11380;50.822;15.790;2022-11-24T19:59:47;4.10;99.90
22426;DHT22;11380;50.822;15.790;2022-11-24T20:04:54;4.10;99.90
22426;DHT22;11380;50.822;15.790;2022-11-24T20:09:59;4.20;99.90
22426;DHT22;11380;50.822;15.790;2022-11-24T20:15:09;4.10;99.90
22426;DHT22;11380;50.822;15.790;2022-11-24T20:20:14;4.30;99.90
22426;DHT22;11380;50.822;15.790;2022-11-24T20:25:19;4.20;99.90
22426;DHT22;11380;50.822;15.790;2022-11-24T20:30:25;4.10;99.90
22426;DHT22;11380;50.822;15.790;2022-11-24T20:35:31;4.20;99.90
22426;DHT22;11380;50.822;15.790;2022-11-24T20:40:37;4.20;99.90
22426;DHT22;11380;50.822;15.790;2022-11-24T20:45:44;4.10;99.90
22426;DHT22;11380;50.822;15.790;2022-11-24T20:50:49;4.10;99.90
22426;DHT22;11380;50.822;15.790;2022-11-24T20:56:07;4.10;99.90
22426;DHT22;11380;50.822;15.790;2022-11-24T21:01:15;4.10;99.90
22426;DHT22;11380;50.822;15.790;2022-11-24T21:06:21;4.20;99.90
22426;DHT22;11380;50.822;15.790;2022-11-24T21:11:27;4.30;99.90
22426;DHT22;11380;50.822;15.790;2022-11-24T21:16:35;4.30;99.90
22426;DHT22;11380;50.822;15.790;2022-11-24T21:21:41;4.20;99.90
22426;DHT22;11380;50.822;15.790;2022-11-24T21:26:47;4.10;99.90
22426;DHT22;11380;50.822;15.790;2022-11-24T21:31:54;4.10;99.90
22426;DHT22;11380;50.822;15.790;2022-11-24T21:37:00;4.10;99.90
22426;DHT22;11380;50.822;15.790;2022-11-24T21:42:06;4.20;99.90
22426;DHT22;11380;50.822;15.790;2022-11-24T21:47:11;4.30;99.90
22426;DHT22;11380;50.822;15.790;2022-11-24T21:52:16;4.20;99.90
22426;DHT22;11380;50.822;15.790;2022-11-24T21:57:21;4.20;99.90
22426;DHT22;11380;50.822;15.790;2022-11-24T22:02:26;4.30;99.90
22426;DHT22;11380;50.822;15.790;2022-11-24T22:07:31;4.30;99.90
22426;DHT22;11380;50.822;15.790;2022-11-24T22:12:36;4.20;99.90
22426;DHT22;11380;50.822;15.790;2022-11-24T22:17:42;4.20;99.90
22426;DHT22;11380;50.822;15.790;2022-11-24T22:22:48;4.20;99.90
22426;DHT22;11380;50.822;15.790;2022-11-24T22:27:53;4.00;99.90
22426;DHT22;11380;50.822;15.790;2022-11-24T22:32:58;4.00;99.90
22426;DHT22;11380;50.822;15.790;2022-11-24T22:38:03;4.00;99.90
22426;DHT22;11380;50.822;15.790;2022-11-24T22:43:09;3.90;99.90
22426;DHT22;11380;50.822;15.790;2022-11-24T22:48:14;4.00;99.90
22426;DHT22;11380;50.822;15.790;2022-11-24T22:53:19;4.00;99.90
22426;DHT22;11380;50.822;15.790;2022-11-24T22:58:24;4.10;99.90
22426;DHT22;11380;50.822;15.790;2022-11-24T23:03:32;4.10;99.90
22426;DHT22;11380;50.822;15.790;2022-11-24T23:08:36;4.10;99.90
22426;DHT22;11380;50.822;15.790;2022-11-24T23:13:41;4.00;99.90
22426;DHT22;11380;50.822;15.790;2022-11-24T23:18:47;4.10;99.90
22426;DHT22;11380;50.822;15.790;2022-11-24T23:23:56;4.10;99.90
22426;DHT22;11380;50.822;15.790;2022-11-24T23:29:03;4.00;99.90
22426;DHT22;11380;50.822;15.790;2022-11-24T23:34:09;4.10;99.90
22426;DHT22;11380;50.822;15.790;2022-11-24T23:39:14;4.10;99.90
22426;DHT22;11380;50.822;15.790;2022-11-24T23:44:20;4.10;99.90
22426;DHT22;11380;50.822;15.790;2022-11-24T23:49:25;3.80;99.90
22426;DHT22;11380;50.822;15.790;2022-11-24T23:54:31;3.90;99.90
22426;DHT22;11380;50.822;15.790;2022-11-24T23:59:36;3.80;99.90
